Time;durP1;ratioP1;P1;durP2;ratioP2;P2;SDS_P1;SDS_P2;PMS_P1;PMS_P2;Temp;Humidity;BMP_temperature;BMP_pressure;BME280_temperature;BME280_humidity;BME280_pressure;Samples;Min_cycle;Max_cycle;Signal;HPM_P1;HPM_P2
2023/07/25 00:01:00;;;;;;;17.25;4.25;;;;;;;;;;5072855;28;20103;-75
2023/07/25 00:03:26;;;;;;;29.92;4.57;;;;;;;;;;5070372;28;20034;-75
2023/07/25 00:05:53;;;;;;;18.33;4.15;;;;;;;;;;5070677;28;20059;-74
2023/07/25 00:08:19;;;;;;;12.25;3.42;;;;;;;;;;5071130;28;20028;-74
2023/07/25 00:10:45;;;;;;;19.38;3.95;;;;;;;;;;5071051;28;20074;-74
2023/07/25 00:13:11;;;;;;;15.48;3.78;;;;;;;;;;5070852;28;20543;-74
2023/07/25 00:15:37;;;;;;;22.27;4.75;;;;;;;;;;5070983;28;20028;-75
2023/07/25 00:18:04;;;;;;;30.10;5.03;;;;;;;;;;5072300;28;20025;-75
2023/07/25 00:20:30;;;;;;;16.23;3.80;;;;;;;;;;5073814;28;20029;-76
2023/07/25 00:22:56;;;;;;;17.30;3.78;;;;;;;;;;5074607;28;20024;-76
2023/07/25 00:25:22;;;;;;;21.02;5.45;;;;;;;;;;5073021;28;20035;-75
2023/07/25 00:27:48;;;;;;;17.13;3.90;;;;;;;;;;5071446;28;20049;-76
2023/07/25 00:30:14;;;;;;;17.90;4.05;;;;;;;;;;5072365;28;20542;-77
2023/07/25 00:32:40;;;;;;;17.25;3.30;;;;;;;;;;5072809;28;20025;-75
2023/07/25 00:35:06;;;;;;;20.52;3.85;;;;;;;;;;5071591;28;20055;-76
2023/07/25 00:37:32;;;;;;;18.52;3.78;;;;;;;;;;5071377;28;20031;-76
2023/07/25 00:39:58;;;;;;;25.58;4.00;;;;;;;;;;5071655;28;20027;-76
2023/07/25 00:42:25;;;;;;;24.73;4.18;;;;;;;;;;5071138;28;20029;-76
2023/07/25 00:44:51;;;;;;;26.73;4.30;;;;;;;;;;5071615;28;20029;-76
2023/07/25 00:47:21;;;;;;;26.27;4.25;;;;;;;;;;5072757;28;20032;-76
2023/07/25 00:49:48;;;;;;;28.17;4.05;;;;;;;;;;5075446;28;20067;-76
2023/07/25 00:52:15;;;;;;;25.67;3.97;;;;;;;;;;5075481;28;20027;-75
2023/07/25 00:54:47;;;;;;;25.20;3.67;;;;;;;;;;5075904;28;20029;-76
2023/07/25 00:57:13;;;;;;;27.60;4.05;;;;;;;;;;5075681;28;20368;-74
2023/07/25 00:59:39;;;;;;;17.27;4.60;;;;;;;;;;5074359;28;20086;-75
2023/07/25 01:02:05;;;;;;;18.92;4.00;;;;;;;;;;5074023;28;20413;-75
2023/07/25 01:04:31;;;;;;;18.92;4.65;;;;;;;;;;5074274;28;20028;-75
2023/07/25 01:06:58;;;;;;;23.55;4.28;;;;;;;;;;5074283;28;20024;-75
2023/07/25 01:09:37;;;;;;;28.67;4.00;;;;;;;;;;5072303;28;20020;-75
2023/07/25 01:12:04;;;;;;;20.13;4.18;;;;;;;;;;5070464;28;20448;-74
2023/07/25 01:14:31;;;;;;;19.50;4.97;;;;;;;;;;5072953;28;20086;-73
2023/07/25 01:16:58;;;;;;;18.15;4.50;;;;;;;;;;5072930;28;20024;-75
2023/07/25 01:19:29;;;;;;;28.02;4.78;;;;;;;;;;5072851;28;20541;-75
2023/07/25 01:21:55;;;;;;;20.75;4.50;;;;;;;;;;5072162;28;20036;-74
2023/07/25 01:24:21;;;;;;;18.52;4.50;;;;;;;;;;5070788;28;20466;-74
2023/07/25 01:26:47;;;;;;;20.63;4.18;;;;;;;;;;5072677;28;20021;-74
2023/07/25 01:29:13;;;;;;;16.27;4.13;;;;;;;;;;5072583;28;20024;-74
2023/07/25 01:31:39;;;;;;;25.88;4.82;;;;;;;;;;5072378;28;20516;-74
2023/07/25 01:34:05;;;;;;;19.92;4.60;;;;;;;;;;5070649;28;20111;-74
2023/07/25 01:36:31;;;;;;;18.60;4.45;;;;;;;;;;5072443;28;20036;-74
2023/07/25 01:38:57;;;;;;;19.00;4.07;;;;;;;;;;5072161;28;20498;-74
2023/07/25 01:41:23;;;;;;;22.10;4.75;;;;;;;;;;5072231;28;20035;-74
2023/07/25 01:43:49;;;;;;;22.88;3.83;;;;;;;;;;5071763;28;20115;-74
2023/07/25 01:46:15;;;;;;;19.38;4.47;;;;;;;;;;5072136;28;20059;-74
2023/07/25 01:48:41;;;;;;;27.75;4.70;;;;;;;;;;5072227;28;20025;-75
2023/07/25 01:51:08;;;;;;;23.08;4.38;;;;;;;;;;5071644;28;20121;-74
2023/07/25 01:53:34;;;;;;;18.55;4.72;;;;;;;;;;5073022;28;20062;-74
2023/07/25 01:56:00;;;;;;;20.63;4.35;;;;;;;;;;5073367;28;20108;-74
2023/07/25 01:58:26;;;;;;;16.38;3.83;;;;;;;;;;5073700;28;20078;-74
2023/07/25 02:00:58;;;;;;;19.80;4.03;;;;;;;;;;5074044;28;20028;-75
2023/07/25 02:03:24;;;;;;;21.83;4.28;;;;;;;;;;5072181;28;20035;-74
2023/07/25 02:05:50;;;;;;;17.70;4.57;;;;;;;;;;5073591;28;20058;-74
2023/07/25 02:08:16;;;;;;;20.42;4.35;;;;;;;;;;5073020;28;20025;-75
2023/07/25 02:10:42;;;;;;;23.30;4.32;;;;;;;;;;5072886;28;20025;-74
2023/07/25 02:13:08;;;;;;;15.98;4.13;;;;;;;;;;5071854;28;20032;-75
2023/07/25 02:15:36;;;;;;;20.50;4.70;;;;;;;;;;5071666;28;20075;-76
2023/07/25 02:18:02;;;;;;;19.85;4.22;;;;;;;;;;5071155;28;20474;-75
2023/07/25 02:20:31;;;;;;;19.40;5.00;;;;;;;;;;5071552;28;20477;-75
2023/07/25 02:22:57;;;;;;;25.02;4.80;;;;;;;;;;5071222;28;20110;-75
2023/07/25 02:25:23;;;;;;;23.63;4.43;;;;;;;;;;5071434;28;20024;-75
2023/07/25 02:27:49;;;;;;;19.90;4.35;;;;;;;;;;5071571;28;20044;-76
2023/07/25 02:30:15;;;;;;;18.65;4.82;;;;;;;;;;5071261;28;20020;-75
2023/07/25 02:32:41;;;;;;;19.42;4.28;;;;;;;;;;5070821;28;20025;-75
2023/07/25 02:35:07;;;;;;;18.58;5.75;;;;;;;;;;5072540;28;20473;-75
2023/07/25 02:37:33;;;;;;;25.85;5.50;;;;;;;;;;5071826;28;20075;-75
2023/07/25 02:39:59;;;;;;;25.58;5.07;;;;;;;;;;5071299;28;20024;-76
2023/07/25 02:42:25;;;;;;;19.65;4.53;;;;;;;;;;5070660;28;20099;-74
2023/07/25 02:44:51;;;;;;;21.23;5.05;;;;;;;;;;5070662;28;20024;-76
2023/07/25 02:47:17;;;;;;;17.35;4.60;;;;;;;;;;5071180;28;20370;-76
2023/07/25 02:49:42;;;;;;;16.98;5.30;;;;;;;;;;5071101;28;20065;-74
2023/07/25 02:52:08;;;;;;;29.35;5.50;;;;;;;;;;5069842;28;20108;-76
2023/07/25 02:54:35;;;;;;;21.20;5.78;;;;;;;;;;5071172;28;20028;-75
2023/07/25 02:57:01;;;;;;;21.63;5.70;;;;;;;;;;5071576;28;20028;-75
2023/07/25 02:59:29;;;;;;;21.05;5.45;;;;;;;;;;5071991;28;20382;-74
2023/07/25 03:01:55;;;;;;;22.63;6.60;;;;;;;;;;5071601;28;20135;-75
2023/07/25 03:04:21;;;;;;;25.25;5.63;;;;;;;;;;5072143;28;20147;-80
2023/07/25 03:06:48;;;;;;;27.25;6.93;;;;;;;;;;5088423;28;20071;-79
2023/07/25 03:09:16;;;;;;;19.38;5.65;;;;;;;;;;5089330;28;20139;-78
2023/07/25 03:11:42;;;;;;;23.67;6.15;;;;;;;;;;5074674;28;20030;-80
2023/07/25 03:14:08;;;;;;;17.40;5.97;;;;;;;;;;5078434;28;20408;-78
2023/07/25 03:16:34;;;;;;;18.98;5.57;;;;;;;;;;5074134;28;20033;-74
2023/07/25 03:19:00;;;;;;;19.50;5.68;;;;;;;;;;5076881;28;20029;-80
2023/07/25 03:21:26;;;;;;;27.83;6.95;;;;;;;;;;5077224;28;20031;-79
2023/07/25 03:23:52;;;;;;;21.55;6.60;;;;;;;;;;5085535;28;20020;-79
2023/07/25 03:26:18;;;;;;;23.83;6.13;;;;;;;;;;5083111;28;20029;-76
2023/07/25 03:28:44;;;;;;;25.15;6.35;;;;;;;;;;5076391;28;20029;-80
2023/07/25 03:31:10;;;;;;;26.15;6.75;;;;;;;;;;5080472;28;20051;-78
2023/07/25 03:33:36;;;;;;;20.83;5.72;;;;;;;;;;5077329;28;20466;-81
2023/07/25 03:36:02;;;;;;;20.77;6.03;;;;;;;;;;5078446;28;20046;-78
2023/07/25 03:38:28;;;;;;;22.55;6.00;;;;;;;;;;5077617;28;20371;-79
2023/07/25 03:40:54;;;;;;;17.25;6.07;;;;;;;;;;5076786;28;20045;-79
2023/07/25 03:43:20;;;;;;;25.95;6.05;;;;;;;;;;5081776;28;20029;-78
2023/07/25 03:45:46;;;;;;;18.85;6.47;;;;;;;;;;5077877;28;20105;-79
2023/07/25 03:48:12;;;;;;;21.95;5.90;;;;;;;;;;5076459;28;20028;-82
2023/07/25 03:50:39;;;;;;;23.67;6.72;;;;;;;;;;5075818;28;20025;-77
2023/07/25 03:53:05;;;;;;;20.95;5.53;;;;;;;;;;5071424;28;20067;-74
2023/07/25 03:55:31;;;;;;;30.08;7.38;;;;;;;;;;5071307;28;20454;-73
2023/07/25 03:57:57;;;;;;;21.45;6.10;;;;;;;;;;5071570;28;20029;-73
2023/07/25 04:00:23;;;;;;;21.17;6.13;;;;;;;;;;5071304;28;20386;-74
2023/07/25 04:02:49;;;;;;;22.10;6.10;;;;;;;;;;5071619;28;20040;-74
2023/07/25 04:05:16;;;;;;;16.70;6.53;;;;;;;;;;5071427;28;20024;-74
2023/07/25 04:07:42;;;;;;;15.55;5.05;;;;;;;;;;5071504;28;20031;-74
2023/07/25 04:10:08;;;;;;;20.10;6.28;;;;;;;;;;5071418;28;20020;-74
2023/07/25 04:12:34;;;;;;;23.13;5.70;;;;;;;;;;5070818;28;20111;-73
2023/07/25 04:15:00;;;;;;;17.10;5.40;;;;;;;;;;5071221;28;20555;-74
2023/07/25 04:17:26;;;;;;;25.30;6.15;;;;;;;;;;5071412;28;20103;-73
2023/07/25 04:19:52;;;;;;;16.60;5.00;;;;;;;;;;5071297;28;20506;-74
2023/07/25 04:22:18;;;;;;;15.15;5.28;;;;;;;;;;5072058;28;20028;-74
2023/07/25 04:24:44;;;;;;;15.88;5.13;;;;;;;;;;5076268;28;20120;-73
2023/07/25 04:27:10;;;;;;;15.77;5.40;;;;;;;;;;5076929;28;20028;-75
2023/07/25 04:29:35;;;;;;;16.15;5.75;;;;;;;;;;5076382;28;20028;-73
2023/07/25 04:32:01;;;;;;;21.48;5.50;;;;;;;;;;5076509;28;20092;-75
2023/07/25 04:34:27;;;;;;;18.27;5.78;;;;;;;;;;5076042;28;20033;-74
2023/07/25 04:36:53;;;;;;;18.17;6.30;;;;;;;;;;5074625;28;20090;-74
2023/07/25 04:39:19;;;;;;;21.00;5.43;;;;;;;;;;5074553;28;20030;-73
2023/07/25 04:41:45;;;;;;;25.92;6.43;;;;;;;;;;5074443;28;20028;-74
2023/07/25 04:44:11;;;;;;;16.98;5.88;;;;;;;;;;5074863;28;20100;-76
2023/07/25 04:46:37;;;;;;;20.67;5.50;;;;;;;;;;5076155;28;20429;-75
2023/07/25 04:49:05;;;;;;;18.48;5.20;;;;;;;;;;5075559;28;20166;-76
2023/07/25 04:51:31;;;;;;;27.10;6.28;;;;;;;;;;5076831;28;20057;-75
2023/07/25 04:53:57;;;;;;;18.40;5.43;;;;;;;;;;5073391;28;20024;-76
2023/07/25 04:56:23;;;;;;;20.42;5.65;;;;;;;;;;5074112;28;20036;-77
2023/07/25 04:58:49;;;;;;;22.25;6.22;;;;;;;;;;5077019;28;20024;-75
2023/07/25 05:01:15;;;;;;;22.02;5.63;;;;;;;;;;5075724;28;20036;-76
2023/07/25 05:03:41;;;;;;;18.35;5.53;;;;;;;;;;5073451;28;20116;-76
2023/07/25 05:06:07;;;;;;;25.60;6.32;;;;;;;;;;5076190;28;20024;-75
2023/07/25 05:08:33;;;;;;;18.88;5.50;;;;;;;;;;5076039;28;20029;-76
2023/07/25 05:11:01;;;;;;;28.58;5.60;;;;;;;;;;5073630;28;20036;-76
2023/07/25 05:13:27;;;;;;;20.60;5.55;;;;;;;;;;5073108;28;20516;-75
2023/07/25 05:15:53;;;;;;;17.33;5.28;;;;;;;;;;5073984;28;20036;-75
2023/07/25 05:18:18;;;;;;;26.23;5.63;;;;;;;;;;5074005;28;20030;-75
2023/07/25 05:20:44;;;;;;;15.23;5.30;;;;;;;;;;5074040;28;20497;-74
2023/07/25 05:23:10;;;;;;;17.15;4.72;;;;;;;;;;5074026;28;20052;-75
2023/07/25 05:25:36;;;;;;;21.27;6.45;;;;;;;;;;5074239;28;20112;-75
2023/07/25 05:28:02;;;;;;;20.27;6.03;;;;;;;;;;5073991;28;20050;-74
2023/07/25 05:30:28;;;;;;;24.55;5.70;;;;;;;;;;5073926;28;20042;-75
2023/07/25 05:32:54;;;;;;;18.88;5.28;;;;;;;;;;5073031;28;20021;-74
2023/07/25 05:35:20;;;;;;;34.33;5.70;;;;;;;;;;5072767;28;20371;-74
2023/07/25 05:37:46;;;;;;;13.45;4.55;;;;;;;;;;5073882;28;20062;-78
2023/07/25 05:40:12;;;;;;;24.98;5.38;;;;;;;;;;5075644;28;20036;-76
2023/07/25 05:42:38;;;;;;;26.17;5.15;;;;;;;;;;5073795;28;20111;-75
2023/07/25 05:45:05;;;;;;;17.92;4.78;;;;;;;;;;5073459;28;20033;-77
2023/07/25 05:47:31;;;;;;;10.70;4.28;;;;;;;;;;5075231;28;20021;-77
2023/07/25 05:49:57;;;;;;;19.88;4.68;;;;;;;;;;5080434;28;20029;-77
2023/07/25 05:52:23;;;;;;;15.43;4.82;;;;;;;;;;5073590;28;20021;-76
2023/07/25 05:54:49;;;;;;;19.23;4.97;;;;;;;;;;5075233;28;20035;-77
2023/07/25 05:57:16;;;;;;;21.05;4.75;;;;;;;;;;5074503;28;20409;-76
2023/07/25 05:59:43;;;;;;;19.60;4.50;;;;;;;;;;5081496;28;20482;-77
2023/07/25 06:02:09;;;;;;;17.92;4.13;;;;;;;;;;5069219;28;20086;-76
2023/07/25 06:04:36;;;;;;;21.20;4.82;;;;;;;;;;5078509;28;20067;-75
2023/07/25 06:07:02;;;;;;;16.05;4.68;;;;;;;;;;5083555;28;20024;-76
2023/07/25 06:09:28;;;;;;;24.85;5.13;;;;;;;;;;5073046;28;20032;-75
2023/07/25 06:11:55;;;;;;;22.13;4.22;;;;;;;;;;5073451;28;20255;-79
2023/07/25 06:14:21;;;;;;;20.85;4.60;;;;;;;;;;5073444;28;20509;-75
2023/07/25 06:16:47;;;;;;;8.52;3.75;;;;;;;;;;5073442;28;20062;-76
2023/07/25 06:19:13;;;;;;;26.15;5.10;;;;;;;;;;5074218;28;20034;-74
2023/07/25 06:21:39;;;;;;;18.98;4.88;;;;;;;;;;5071210;28;20074;-75
2023/07/25 06:24:05;;;;;;;17.30;4.28;;;;;;;;;;5072335;28;20029;-76
2023/07/25 06:26:31;;;;;;;14.90;4.43;;;;;;;;;;5074057;28;20025;-75
2023/07/25 06:28:57;;;;;;;20.30;4.80;;;;;;;;;;5072822;28;20378;-75
2023/07/25 06:31:23;;;;;;;12.70;4.30;;;;;;;;;;5072665;28;20415;-75
2023/07/25 06:33:49;;;;;;;17.42;4.22;;;;;;;;;;5071559;28;20364;-75
2023/07/25 06:36:15;;;;;;;18.67;4.70;;;;;;;;;;5072406;28;20107;-76
2023/07/25 06:38:41;;;;;;;14.85;4.60;;;;;;;;;;5072414;28;20063;-76
2023/07/25 06:41:07;;;;;;;18.02;4.38;;;;;;;;;;5072283;28;20029;-75
2023/07/25 06:43:33;;;;;;;19.98;4.45;;;;;;;;;;5071370;28;20036;-74
2023/07/25 06:45:59;;;;;;;18.83;4.85;;;;;;;;;;5071611;28;20024;-74
2023/07/25 06:48:25;;;;;;;22.27;4.47;;;;;;;;;;5070480;28;20025;-74
2023/07/25 06:50:51;;;;;;;16.33;3.55;;;;;;;;;;5071383;28;20046;-75
2023/07/25 06:53:17;;;;;;;23.27;3.70;;;;;;;;;;5069604;28;20120;-75
2023/07/25 06:55:44;;;;;;;15.20;3.75;;;;;;;;;;5071052;28;20107;-74
2023/07/25 06:58:10;;;;;;;17.42;4.22;;;;;;;;;;5071506;28;20029;-74
2023/07/25 07:00:37;;;;;;;21.95;3.60;;;;;;;;;;5071587;28;20109;-77
2023/07/25 07:03:04;;;;;;;25.88;4.15;;;;;;;;;;5070741;28;20038;-75
2023/07/25 07:05:30;;;;;;;22.15;4.25;;;;;;;;;;5070703;28;20028;-75
2023/07/25 07:07:56;;;;;;;16.35;3.83;;;;;;;;;;5070657;28;20068;-75
2023/07/25 07:10:22;;;;;;;19.50;3.78;;;;;;;;;;5070750;28;20096;-75
2023/07/25 07:12:48;;;;;;;20.77;3.97;;;;;;;;;;5070121;28;20033;-77
2023/07/25 07:15:17;;;;;;;13.73;3.20;;;;;;;;;;5071099;28;20078;-76
2023/07/25 07:17:43;;;;;;;19.02;3.28;;;;;;;;;;5070405;28;20433;-76
2023/07/25 07:20:09;;;;;;;17.20;3.70;;;;;;;;;;5070451;28;20028;-74
2023/07/25 07:22:35;;;;;;;21.38;3.30;;;;;;;;;;5070257;28;20107;-76
2023/07/25 07:25:01;;;;;;;12.20;2.80;;;;;;;;;;5071068;28;20108;-75
2023/07/25 07:27:27;;;;;;;19.05;3.20;;;;;;;;;;5069197;28;20099;-76
2023/07/25 07:29:53;;;;;;;17.13;2.92;;;;;;;;;;5070742;28;20075;-76
2023/07/25 07:32:19;;;;;;;21.48;3.83;;;;;;;;;;5069310;28;20021;-73
2023/07/25 07:34:45;;;;;;;19.63;3.60;;;;;;;;;;5070720;28;20390;-76
2023/07/25 07:37:11;;;;;;;15.48;3.05;;;;;;;;;;5070418;28;20029;-76
2023/07/25 07:39:39;;;;;;;21.70;3.42;;;;;;;;;;5070898;28;20024;-77
2023/07/25 07:42:05;;;;;;;17.70;3.33;;;;;;;;;;5070365;28;20020;-77
2023/07/25 07:44:31;;;;;;;11.02;2.75;;;;;;;;;;5070900;28;20031;-74
2023/07/25 07:46:57;;;;;;;14.85;3.70;;;;;;;;;;5070198;28;20095;-76
2023/07/25 07:49:23;;;;;;;16.52;3.65;;;;;;;;;;5070462;28;20025;-76
2023/07/25 07:51:49;;;;;;;16.73;3.55;;;;;;;;;;5070149;28;20020;-74
2023/07/25 07:54:15;;;;;;;12.73;2.72;;;;;;;;;;5070701;28;20466;-76
2023/07/25 07:56:41;;;;;;;20.88;4.25;;;;;;;;;;5071046;28;20032;-75
2023/07/25 07:59:07;;;;;;;17.25;3.75;;;;;;;;;;5074300;28;20027;-74
2023/07/25 08:01:33;;;;;;;18.45;3.92;;;;;;;;;;5075714;28;20028;-75
2023/07/25 08:03:59;;;;;;;15.90;3.50;;;;;;;;;;5080121;28;20024;-75
2023/07/25 08:06:25;;;;;;;21.70;3.72;;;;;;;;;;5080645;28;20032;-75
2023/07/25 08:08:51;;;;;;;20.65;3.60;;;;;;;;;;5080427;28;20107;-75
2023/07/25 08:11:17;;;;;;;27.55;4.93;;;;;;;;;;5077481;28;20068;-73
2023/07/25 08:13:43;;;;;;;37.05;16.70;;;;;;;;;;5074310;28;20044;-74
2023/07/25 08:16:09;;;;;;;22.42;4.80;;;;;;;;;;5076293;28;20090;-73
2023/07/25 08:18:35;;;;;;;15.93;3.40;;;;;;;;;;5079464;28;20028;-75
2023/07/25 08:21:02;;;;;;;15.98;3.90;;;;;;;;;;5090226;28;20040;-76
2023/07/25 08:23:28;;;;;;;12.00;3.40;;;;;;;;;;5097047;28;20043;-75
2023/07/25 08:25:57;;;;;;;13.77;3.30;;;;;;;;;;5098491;28;20040;-75
2023/07/25 08:28:23;;;;;;;12.13;3.47;;;;;;;;;;5097460;28;20020;-74
2023/07/25 08:30:58;;;;;;;13.15;3.05;;;;;;;;;;5096066;28;20042;-73
2023/07/25 08:33:25;;;;;;;13.93;2.90;;;;;;;;;;5094683;28;20029;-74
2023/07/25 08:35:52;;;;;;;11.38;3.08;;;;;;;;;;5096404;28;20640;-74
2023/07/25 08:38:18;;;;;;;10.07;2.20;;;;;;;;;;5097827;28;20040;-74
2023/07/25 08:40:46;;;;;;;7.40;1.80;;;;;;;;;;5098953;28;20059;-74
2023/07/25 08:43:13;;;;;;;7.07;2.38;;;;;;;;;;5098415;28;20009;-74
2023/07/25 08:45:41;;;;;;;5.57;1.70;;;;;;;;;;5096618;28;20013;-74
2023/07/25 08:48:10;;;;;;;10.25;2.10;;;;;;;;;;5080942;28;20695;-75
2023/07/25 08:50:37;;;;;;;14.23;3.45;;;;;;;;;;5073903;28;20024;-76
2023/07/25 08:53:06;;;;;;;10.27;2.90;;;;;;;;;;5074136;28;20032;-73
2023/07/25 08:55:33;;;;;;;13.82;2.95;;;;;;;;;;5074551;28;20039;-75
2023/07/25 08:57:59;;;;;;;10.02;2.47;;;;;;;;;;5072808;28;20025;-77
2023/07/25 09:00:25;;;;;;;10.40;2.20;;;;;;;;;;5073705;28;20050;-72
2023/07/25 09:02:52;;;;;;;10.75;2.38;;;;;;;;;;5074113;28;20021;-75
2023/07/25 09:05:18;;;;;;;9.68;2.45;;;;;;;;;;5074787;28;20032;-75
2023/07/25 09:07:44;;;;;;;14.55;2.60;;;;;;;;;;5073732;28;20121;-74
2023/07/25 09:10:11;;;;;;;10.27;2.35;;;;;;;;;;5072228;28;20020;-74
2023/07/25 09:12:37;;;;;;;8.00;2.20;;;;;;;;;;5072655;28;20032;-75
2023/07/25 09:15:03;;;;;;;15.50;2.63;;;;;;;;;;5073731;28;20375;-74
2023/07/25 09:17:30;;;;;;;10.48;2.90;;;;;;;;;;5073590;28;20049;-76
2023/07/25 09:19:56;;;;;;;8.40;3.13;;;;;;;;;;5074542;28;20071;-75
2023/07/25 09:22:29;;;;;;;13.15;2.75;;;;;;;;;;5074725;28;20029;-75
2023/07/25 09:24:55;;;;;;;9.60;2.47;;;;;;;;;;5076184;28;20482;-74
2023/07/25 09:27:21;;;;;;;11.30;3.05;;;;;;;;;;5076335;28;20020;-75
2023/07/25 09:29:51;;;;;;;8.60;2.38;;;;;;;;;;5073197;28;20080;-76
2023/07/25 09:32:24;;;;;;;10.60;2.55;;;;;;;;;;5072381;28;20027;-77
2023/07/25 09:35:06;;;;;;;12.50;2.73;;;;;;;;;;5073908;28;20081;-75
2023/07/25 09:37:33;;;;;;;8.32;2.70;;;;;;;;;;5074813;28;20028;-76
2023/07/25 09:39:59;;;;;;;9.45;2.90;;;;;;;;;;5073647;28;20028;-74
2023/07/25 09:42:25;;;;;;;10.82;4.13;;;;;;;;;;5074128;28;20107;-74
2023/07/25 09:44:52;;;;;;;8.02;2.55;;;;;;;;;;5073833;28;20447;-76
2023/07/25 09:47:25;;;;;;;12.57;2.40;;;;;;;;;;5073615;28;20612;-75
2023/07/25 09:49:52;;;;;;;13.45;3.08;;;;;;;;;;5073732;28;20024;-77
2023/07/25 09:52:18;;;;;;;6.85;2.33;;;;;;;;;;5073925;28;20021;-75
2023/07/25 09:54:45;;;;;;;14.30;2.25;;;;;;;;;;5073982;28;20749;-76
2023/07/25 09:57:11;;;;;;;19.33;2.72;;;;;;;;;;5073305;28;20075;-76
2023/07/25 09:59:37;;;;;;;16.98;2.72;;;;;;;;;;5073248;28;20109;-75
2023/07/25 10:02:04;;;;;;;15.07;2.67;;;;;;;;;;5073176;28;20107;-75
2023/07/25 10:04:30;;;;;;;13.52;3.00;;;;;;;;;;5073530;28;20497;-75
2023/07/25 10:06:57;;;;;;;14.43;3.03;;;;;;;;;;5073132;28;20039;-75
2023/07/25 10:09:24;;;;;;;18.00;3.45;;;;;;;;;;5073072;28;20021;-75
2023/07/25 10:11:50;;;;;;;15.88;2.30;;;;;;;;;;5072743;28;20078;-75
2023/07/25 10:14:16;;;;;;;13.35;2.85;;;;;;;;;;5073604;28;20017;-76
2023/07/25 10:16:43;;;;;;;15.43;6.10;;;;;;;;;;5074016;28;20064;-75
2023/07/25 10:19:09;;;;;;;11.98;2.60;;;;;;;;;;5072613;28;20074;-75
2023/07/25 10:21:53;;;;;;;11.98;2.78;;;;;;;;;;5072551;28;20028;-75
2023/07/25 10:24:20;;;;;;;11.73;2.45;;;;;;;;;;5072869;28;20028;-73
2023/07/25 10:26:53;;;;;;;10.50;2.05;;;;;;;;;;5052954;28;20056;-75
2023/07/25 10:29:35;;;;;;;8.10;2.22;;;;;;;;;;5052613;28;20025;-74
2023/07/25 10:32:02;;;;;;;14.63;2.90;;;;;;;;;;5052403;28;20105;-76
2023/07/25 10:34:44;;;;;;;10.98;2.28;;;;;;;;;;5054902;28;20021;-77
2023/07/25 10:37:28;;;;;;;12.10;5.32;;;;;;;;;;5058396;28;20035;-78
2023/07/25 10:40:03;;;;;;;13.65;3.30;;;;;;;;;;5054394;28;20147;-76
2023/07/25 10:42:42;;;;;;;13.95;2.65;;;;;;;;;;5052722;28;20040;-77
2023/07/25 10:45:19;;;;;;;9.35;2.42;;;;;;;;;;5052772;28;20021;-75
2023/07/25 10:47:46;;;;;;;15.50;2.65;;;;;;;;;;5051684;28;20090;-75
2023/07/25 10:50:12;;;;;;;16.35;2.53;;;;;;;;;;5052732;28;20028;-74
2023/07/25 10:52:45;;;;;;;13.98;2.70;;;;;;;;;;5051589;28;20032;-74
2023/07/25 10:55:11;;;;;;;11.48;2.72;;;;;;;;;;5052308;28;20036;-73
2023/07/25 10:57:37;;;;;;;9.25;2.42;;;;;;;;;;5052314;28;20040;-74
2023/07/25 11:00:05;;;;;;;16.48;2.83;;;;;;;;;;5052482;28;20025;-74
2023/07/25 11:02:32;;;;;;;9.68;2.35;;;;;;;;;;5052045;28;20509;-73
2023/07/25 11:05:13;;;;;;;13.23;2.50;;;;;;;;;;5052046;28;20033;-72
2023/07/25 11:07:45;;;;;;;10.98;2.22;;;;;;;;;;5051837;28;20478;-74
2023/07/25 11:10:12;;;;;;;11.27;2.60;;;;;;;;;;5052142;28;20524;-74
2023/07/25 11:12:38;;;;;;;15.70;3.72;;;;;;;;;;5051393;28;20033;-73
2023/07/25 11:15:04;;;;;;;15.98;2.40;;;;;;;;;;5050557;28;20029;-73
2023/07/25 11:17:30;;;;;;;13.18;2.15;;;;;;;;;;5050655;28;20115;-73
2023/07/25 11:20:13;;;;;;;12.65;2.60;;;;;;;;;;5050887;28;20065;-74
2023/07/25 11:22:39;;;;;;;9.05;2.00;;;;;;;;;;5050033;28;20036;-73
2023/07/25 11:25:08;;;;;;;9.75;2.35;;;;;;;;;;5050753;28;20068;-72
2023/07/25 11:27:35;;;;;;;13.35;2.40;;;;;;;;;;5050962;28;20064;-74
2023/07/25 11:30:14;;;;;;;8.73;2.45;;;;;;;;;;5050255;28;20021;-74
2023/07/25 11:32:45;;;;;;;14.70;3.00;;;;;;;;;;5047994;28;20104;-73
2023/07/25 11:35:11;;;;;;;9.85;3.00;;;;;;;;;;5050714;28;20029;-73
2023/07/25 11:37:37;;;;;;;11.98;2.80;;;;;;;;;;5053638;28;20035;-73
2023/07/25 11:40:17;;;;;;;11.60;3.28;;;;;;;;;;5070802;28;20066;-72
2023/07/25 11:42:44;;;;;;;8.75;2.42;;;;;;;;;;5069693;28;20029;-73
2023/07/25 11:45:11;;;;;;;11.30;2.20;;;;;;;;;;5070692;28;20051;-74
2023/07/25 11:47:38;;;;;;;8.68;2.20;;;;;;;;;;5070374;28;20028;-72
2023/07/25 11:50:05;;;;;;;11.98;2.42;;;;;;;;;;5070712;28;20187;-76
2023/07/25 11:52:32;;;;;;;11.48;2.35;;;;;;;;;;5068322;28;20076;-74
2023/07/25 11:54:58;;;;;;;10.07;2.03;;;;;;;;;;5070253;28;20498;-73
2023/07/25 11:57:24;;;;;;;15.00;2.85;;;;;;;;;;5072301;28;20033;-80
2023/07/25 11:59:54;;;;;;;11.82;2.53;;;;;;;;;;5072747;28;20036;-75
2023/07/25 12:02:20;;;;;;;11.65;2.40;;;;;;;;;;5072340;28;20028;-73
2023/07/25 12:04:46;;;;;;;13.35;2.03;;;;;;;;;;5069862;28;20059;-73
2023/07/25 12:07:15;;;;;;;14.93;2.30;;;;;;;;;;5070247;28;20054;-72
2023/07/25 12:09:49;;;;;;;10.45;2.20;;;;;;;;;;5069171;28;20056;-73
2023/07/25 12:12:15;;;;;;;8.38;1.90;;;;;;;;;;5070450;28;20037;-74
2023/07/25 12:14:52;;;;;;;10.80;2.38;;;;;;;;;;5071314;28;20111;-73
2023/07/25 12:17:18;;;;;;;7.35;1.90;;;;;;;;;;5071199;28;20080;-72
2023/07/25 12:19:51;;;;;;;12.45;2.20;;;;;;;;;;5071263;28;20036;-72
2023/07/25 12:22:18;;;;;;;12.23;2.13;;;;;;;;;;5070534;28;20433;-73
2023/07/25 12:24:44;;;;;;;10.43;1.92;;;;;;;;;;5071194;28;20028;-73
2023/07/25 12:27:19;;;;;;;10.95;2.08;;;;;;;;;;5072017;28;20103;-74
2023/07/25 12:29:45;;;;;;;11.05;1.95;;;;;;;;;;5074119;28;20061;-74
2023/07/25 12:32:13;;;;;;;14.40;2.63;;;;;;;;;;5072987;28;20020;-74
2023/07/25 12:34:39;;;;;;;15.68;5.20;;;;;;;;;;5073984;28;20025;-76
2023/07/25 12:37:05;;;;;;;9.95;1.70;;;;;;;;;;5073962;28;20074;-74
2023/07/25 12:39:32;;;;;;;8.25;1.77;;;;;;;;;;5075200;28;20052;-72
2023/07/25 12:41:58;;;;;;;10.55;1.80;;;;;;;;;;5071096;28;20039;-74
2023/07/25 12:44:24;;;;;;;9.48;2.50;;;;;;;;;;5073673;28;20074;-73
2023/07/25 12:46:50;;;;;;;12.45;1.70;;;;;;;;;;5074505;28;20061;-72
2023/07/25 12:49:15;;;;;;;8.10;1.90;;;;;;;;;;5074387;28;20028;-71
2023/07/25 12:51:41;;;;;;;7.03;1.65;;;;;;;;;;5074687;28;20028;-73
2023/07/25 12:54:08;;;;;;;8.57;1.60;;;;;;;;;;5074143;28;20394;-73
2023/07/25 12:56:34;;;;;;;9.73;1.85;;;;;;;;;;5074696;28;20024;-72
2023/07/25 12:59:00;;;;;;;10.75;1.80;;;;;;;;;;5073991;28;20657;-73
2023/07/25 13:01:26;;;;;;;12.48;2.22;;;;;;;;;;5079752;28;20025;-72
2023/07/25 13:03:52;;;;;;;9.85;1.65;;;;;;;;;;5070603;28;20024;-73
2023/07/25 13:06:18;;;;;;;13.57;2.20;;;;;;;;;;5074153;28;20032;-72
2023/07/25 13:08:43;;;;;;;9.35;2.33;;;;;;;;;;5079842;28;20020;-71
2023/07/25 13:11:09;;;;;;;8.75;1.77;;;;;;;;;;5073841;28;20483;-72
2023/07/25 13:13:35;;;;;;;11.50;2.17;;;;;;;;;;5073242;28;20027;-73
2023/07/25 13:16:03;;;;;;;10.73;1.92;;;;;;;;;;5074060;28;20057;-73
2023/07/25 13:18:29;;;;;;;9.38;1.73;;;;;;;;;;5076811;28;20033;-74
2023/07/25 13:20:55;;;;;;;8.25;1.95;;;;;;;;;;5074511;28;20043;-72
2023/07/25 13:23:21;;;;;;;7.95;1.60;;;;;;;;;;5073286;28;20064;-73
2023/07/25 13:25:47;;;;;;;12.30;1.67;;;;;;;;;;5079285;28;20060;-73
2023/07/25 13:28:15;;;;;;;5.80;1.25;;;;;;;;;;5078884;28;20490;-73
2023/07/25 13:30:41;;;;;;;9.77;1.67;;;;;;;;;;5073462;28;20039;-75
2023/07/25 13:33:07;;;;;;;11.32;1.90;;;;;;;;;;5073105;28;20037;-72
2023/07/25 13:35:34;;;;;;;8.85;1.60;;;;;;;;;;5075611;28;20029;-74
2023/07/25 13:38:01;;;;;;;9.65;1.92;;;;;;;;;;5072435;28;20052;-74
2023/07/25 13:40:28;;;;;;;8.27;1.50;;;;;;;;;;5072618;28;20489;-73
2023/07/25 13:42:54;;;;;;;9.30;1.60;;;;;;;;;;5071277;28;20048;-73
2023/07/25 13:45:19;;;;;;;5.90;2.00;;;;;;;;;;5083584;28;20382;-73
2023/07/25 13:47:46;;;;;;;9.02;1.60;;;;;;;;;;5072200;28;20447;-72
2023/07/25 13:50:12;;;;;;;8.57;1.60;;;;;;;;;;5072321;28;20099;-73
2023/07/25 13:52:38;;;;;;;8.85;2.22;;;;;;;;;;5071004;28;20363;-73
2023/07/25 13:55:05;;;;;;;5.97;1.80;;;;;;;;;;5073696;28;20064;-73
2023/07/25 13:57:31;;;;;;;9.02;2.10;;;;;;;;;;5072381;28;20027;-75
2023/07/25 13:59:57;;;;;;;14.70;5.40;;;;;;;;;;5072411;28;20116;-75
2023/07/25 14:02:23;;;;;;;7.00;2.50;;;;;;;;;;5072066;28;20052;-75
2023/07/25 14:04:49;;;;;;;10.10;1.63;;;;;;;;;;5072320;28;20028;-73
2023/07/25 14:07:15;;;;;;;7.05;1.80;;;;;;;;;;5072393;28;20063;-75
2023/07/25 14:09:41;;;;;;;12.57;2.05;;;;;;;;;;5071698;28;20052;-74
2023/07/25 14:12:07;;;;;;;9.13;1.50;;;;;;;;;;5071759;28;20028;-73
2023/07/25 14:14:33;;;;;;;10.10;1.83;;;;;;;;;;5072083;28;20140;-76
2023/07/25 14:17:01;;;;;;;11.55;1.98;;;;;;;;;;5071851;28;20088;-75
2023/07/25 14:19:27;;;;;;;10.05;2.30;;;;;;;;;;5073808;28;20017;-74
2023/07/25 14:21:54;;;;;;;12.18;2.92;;;;;;;;;;5073667;28;20105;-75
2023/07/25 14:24:20;;;;;;;7.57;2.78;;;;;;;;;;5071851;28;20032;-77
2023/07/25 14:26:46;;;;;;;9.05;1.98;;;;;;;;;;5087549;28;20032;-76
2023/07/25 14:29:12;;;;;;;9.20;1.50;;;;;;;;;;5092262;28;20070;-77